Time;durP1;ratioP1;P1;durP2;ratioP2;P2;SDS_P1;SDS_P2;PMS_P1;PMS_P2;Temp;Humidity;BMP_temperature;BMP_pressure;BME280_temperature;BME280_humidity;BME280_pressure;Samples;Min_cycle;Max_cycle;Signal;HPM_P1;HPM_P2
2022/04/08 00:03:47;;;;;;;1.92;1.40;;;;;;;;;;8230137;28;20051;-76
2022/04/08 00:07:49;;;;;;;3.38;1.40;;;;;;;;;;8218634;28;20118;-76
2022/04/08 00:11:52;;;;;;;2.72;1.42;;;;;;;;;;8225682;28;20050;-76
2022/04/08 00:15:55;;;;;;;5.13;1.67;;;;;;;;;;8226714;28;20046;-76
2022/04/08 00:19:59;;;;;;;4.05;1.80;;;;;;;;;;8230941;28;20045;-76
2022/04/08 00:24:02;;;;;;;2.40;1.65;;;;;;;;;;8233541;28;20051;-75
2022/04/08 00:28:05;;;;;;;2.45;1.52;;;;;;;;;;8233029;28;20403;-76
2022/04/08 00:32:09;;;;;;;3.13;1.90;;;;;;;;;;8233471;28;20098;-76
2022/04/08 00:36:12;;;;;;;3.78;1.92;;;;;;;;;;8232503;28;20043;-76
2022/04/08 00:40:15;;;;;;;2.40;1.75;;;;;;;;;;8205615;28;20039;-75
2022/04/08 00:44:18;;;;;;;1.95;1.73;;;;;;;;;;8200825;29;20106;-76
2022/04/08 00:48:21;;;;;;;2.20;1.70;;;;;;;;;;8202009;28;20058;-75
2022/04/08 00:52:25;;;;;;;2.67;1.63;;;;;;;;;;8201813;28;20054;-75
2022/04/08 00:56:30;;;;;;;2.10;1.73;;;;;;;;;;8201880;29;20051;-75
2022/04/08 01:00:34;;;;;;;2.80;1.63;;;;;;;;;;8201661;28;20043;-75
2022/04/08 01:04:37;;;;;;;2.65;1.70;;;;;;;;;;8201723;28;20095;-75
2022/04/08 01:08:41;;;;;;;1.83;1.50;;;;;;;;;;8201573;28;20051;-75
2022/04/08 01:12:44;;;;;;;3.65;1.70;;;;;;;;;;8201385;28;20051;-75
2022/04/08 01:16:46;;;;;;;2.88;1.60;;;;;;;;;;8201466;28;20054;-75
2022/04/08 01:20:49;;;;;;;3.00;1.75;;;;;;;;;;8201324;28;20043;-75
2022/04/08 01:25:02;;;;;;;3.25;2.03;;;;;;;;;;8201221;29;20110;-75
2022/04/08 01:29:04;;;;;;;2.65;1.95;;;;;;;;;;8201856;28;20133;-75
2022/04/08 01:33:07;;;;;;;3.10;2.13;;;;;;;;;;8201278;28;20055;-76
2022/04/08 01:37:10;;;;;;;7.30;2.20;;;;;;;;;;8201190;28;20047;-75
2022/04/08 01:41:16;;;;;;;3.17;1.73;;;;;;;;;;8201116;28;20467;-75
2022/04/08 01:45:19;;;;;;;3.22;1.70;;;;;;;;;;8201578;28;20483;-75
2022/04/08 01:49:21;;;;;;;4.00;1.70;;;;;;;;;;8201363;28;20059;-75
2022/04/08 01:53:24;;;;;;;1.88;1.50;;;;;;;;;;8200853;29;20054;-75
2022/04/08 01:57:29;;;;;;;2.72;1.50;;;;;;;;;;8200877;28;20054;-76
2022/04/08 02:01:32;;;;;;;3.38;1.63;;;;;;;;;;8200713;28;20088;-75
2022/04/08 02:05:34;;;;;;;3.92;1.70;;;;;;;;;;8200746;28;20055;-75
2022/04/08 02:09:37;;;;;;;3.20;1.52;;;;;;;;;;8200574;28;20048;-75
2022/04/08 02:13:40;;;;;;;1.63;1.50;;;;;;;;;;8200994;28;20507;-75
2022/04/08 02:17:43;;;;;;;2.65;1.42;;;;;;;;;;8200496;29;20047;-75
2022/04/08 02:21:46;;;;;;;3.15;1.58;;;;;;;;;;8200459;28;20499;-75
2022/04/08 02:25:48;;;;;;;5.43;1.60;;;;;;;;;;8204358;28;20519;-75
2022/04/08 02:29:52;;;;;;;3.28;1.50;;;;;;;;;;8206485;28;20479;-75
2022/04/08 02:33:55;;;;;;;2.85;1.80;;;;;;;;;;8205997;28;20487;-75
2022/04/08 02:37:57;;;;;;;3.28;1.58;;;;;;;;;;8205931;28;20063;-75
2022/04/08 02:42:00;;;;;;;2.25;1.63;;;;;;;;;;8206151;28;20395;-75
2022/04/08 02:46:04;;;;;;;3.45;1.67;;;;;;;;;;8205712;28;20048;-75
2022/04/08 02:50:07;;;;;;;6.35;1.90;;;;;;;;;;8205474;28;20063;-75
2022/04/08 02:54:11;;;;;;;4.22;1.50;;;;;;;;;;8203167;28;20116;-74
2022/04/08 02:58:14;;;;;;;8.13;1.52;;;;;;;;;;8269429;28;20052;-75
2022/04/08 03:02:18;;;;;;;5.63;1.58;;;;;;;;;;8268813;28;20057;-75
2022/04/08 03:06:21;;;;;;;3.15;2.03;;;;;;;;;;8236958;28;20043;-75
2022/04/08 03:10:23;;;;;;;9.55;3.05;;;;;;;;;;8236944;28;20050;-74
2022/04/08 03:14:26;;;;;;;4.45;2.13;;;;;;;;;;8236817;28;20051;-75
2022/04/08 03:18:30;;;;;;;6.22;2.60;;;;;;;;;;8236730;28;20100;-75
2022/04/08 03:22:33;;;;;;;3.80;1.80;;;;;;;;;;8236196;28;20082;-75
2022/04/08 03:26:35;;;;;;;3.92;2.13;;;;;;;;;;8236456;28;20050;-75
2022/04/08 03:30:38;;;;;;;3.03;1.90;;;;;;;;;;8236347;28;20053;-74
2022/04/08 03:34:42;;;;;;;8.30;2.70;;;;;;;;;;8236182;28;20054;-75
2022/04/08 03:38:44;;;;;;;7.45;3.38;;;;;;;;;;8236543;28;20047;-75
2022/04/08 03:42:47;;;;;;;5.93;2.78;;;;;;;;;;8235749;28;20047;-75
2022/04/08 03:46:49;;;;;;;6.55;2.33;;;;;;;;;;8235792;28;20051;-75
2022/04/08 03:51:00;;;;;;;6.07;2.22;;;;;;;;;;8235613;28;20054;-75
2022/04/08 03:55:04;;;;;;;6.03;2.55;;;;;;;;;;8235505;28;20069;-74
2022/04/08 03:59:07;;;;;;;5.40;2.25;;;;;;;;;;8235314;28;20077;-75
2022/04/08 04:03:10;;;;;;;4.60;2.28;;;;;;;;;;8235194;28;20062;-74
2022/04/08 04:07:14;;;;;;;4.60;1.70;;;;;;;;;;8235549;28;20050;-74
2022/04/08 04:11:17;;;;;;;6.57;3.20;;;;;;;;;;8235470;28;20402;-74
2022/04/08 04:15:21;;;;;;;6.68;2.50;;;;;;;;;;8234878;28;20126;-75
2022/04/08 04:19:24;;;;;;;3.60;2.28;;;;;;;;;;8234760;28;20121;-75
2022/04/08 04:23:28;;;;;;;7.28;2.60;;;;;;;;;;8234611;28;20498;-75
2022/04/08 04:27:30;;;;;;;5.25;2.13;;;;;;;;;;8234696;28;20057;-75
2022/04/08 04:31:33;;;;;;;3.42;1.90;;;;;;;;;;8234953;28;20469;-75
2022/04/08 04:35:36;;;;;;;5.93;2.80;;;;;;;;;;8234462;28;20465;-74
2022/04/08 04:39:43;;;;;;;7.65;2.85;;;;;;;;;;8234234;28;20046;-75
2022/04/08 04:43:46;;;;;;;6.68;2.95;;;;;;;;;;8234161;28;20054;-74
2022/04/08 04:47:49;;;;;;;6.20;3.03;;;;;;;;;;8233602;28;20110;-75
2022/04/08 04:51:52;;;;;;;5.28;2.40;;;;;;;;;;8233946;28;20053;-75
2022/04/08 04:55:56;;;;;;;6.78;2.97;;;;;;;;;;8233839;28;20130;-75
2022/04/08 04:59:59;;;;;;;6.43;2.80;;;;;;;;;;8233558;28;20104;-74
2022/04/08 05:04:01;;;;;;;2.80;1.75;;;;;;;;;;8233534;28;20105;-75
2022/04/08 05:08:04;;;;;;;3.63;1.90;;;;;;;;;;8233423;28;20104;-74
2022/04/08 05:12:10;;;;;;;2.97;1.77;;;;;;;;;;8233435;28;20077;-75
2022/04/08 05:16:12;;;;;;;3.85;1.75;;;;;;;;;;8228420;28;20464;-75
2022/04/08 05:20:15;;;;;;;3.17;1.80;;;;;;;;;;8230873;28;20490;-74
2022/04/08 05:24:18;;;;;;;4.07;2.03;;;;;;;;;;8229997;28;20093;-75
2022/04/08 05:28:22;;;;;;;3.80;2.00;;;;;;;;;;8232092;28;20477;-74
2022/04/08 05:32:26;;;;;;;4.18;2.03;;;;;;;;;;8232945;28;20100;-75
2022/04/08 05:36:29;;;;;;;7.05;2.05;;;;;;;;;;8232007;28;20051;-75
2022/04/08 05:40:31;;;;;;;4.60;1.73;;;;;;;;;;8231516;28;20043;-75
2022/04/08 05:44:35;;;;;;;6.45;2.10;;;;;;;;;;8231638;28;20100;-75
2022/04/08 05:48:38;;;;;;;5.88;2.17;;;;;;;;;;8217508;28;20840;-75
2022/04/08 05:52:43;;;;;;;3.58;1.98;;;;;;;;;;8210245;28;20114;-77
2022/04/08 05:56:51;;;;;;;3.08;1.70;;;;;;;;;;8230053;28;20078;-76
2022/04/08 06:00:57;;;;;;;3.80;2.20;;;;;;;;;;8231191;28;20437;-76
2022/04/08 06:05:01;;;;;;;4.32;1.80;;;;;;;;;;8236741;28;20051;-76
2022/04/08 06:09:07;;;;;;;5.45;1.83;;;;;;;;;;8235859;28;20042;-76
2022/04/08 06:13:17;;;;;;;4.63;1.70;;;;;;;;;;8219644;28;20059;-76
2022/04/08 06:17:26;;;;;;;4.47;1.85;;;;;;;;;;8234233;28;20105;-76
2022/04/08 06:21:34;;;;;;;6.70;1.60;;;;;;;;;;8235540;28;20066;-77
2022/04/08 06:25:39;;;;;;;3.15;1.50;;;;;;;;;;8236828;28;20051;-76
2022/04/08 06:29:46;;;;;;;2.90;1.63;;;;;;;;;;8237605;28;20057;-75
2022/04/08 06:33:56;;;;;;;6.18;1.90;;;;;;;;;;8236355;28;20470;-76
2022/04/08 06:38:02;;;;;;;4.68;1.75;;;;;;;;;;8235869;28;20051;-74
2022/04/08 06:42:06;;;;;;;6.90;1.85;;;;;;;;;;8235840;28;20482;-74
2022/04/08 06:46:12;;;;;;;7.97;2.25;;;;;;;;;;8237708;28;20125;-76
2022/04/08 06:50:34;;;;;;;3.88;1.65;;;;;;;;;;8236029;28;20055;-74
2022/04/08 06:54:44;;;;;;;4.43;1.83;;;;;;;;;;8238938;28;20039;-74
2022/04/08 06:58:50;;;;;;;5.45;1.92;;;;;;;;;;8236365;28;20069;-75
2022/04/08 07:03:01;;;;;;;9.00;1.98;;;;;;;;;;8234767;28;20055;-74
2022/04/08 07:07:22;;;;;;;10.57;3.60;;;;;;;;;;8234077;28;20043;-75
2022/04/08 07:11:36;;;;;;;6.85;2.10;;;;;;;;;;8233630;28;20054;-74
2022/04/08 07:15:43;;;;;;;5.70;2.20;;;;;;;;;;8236166;28;20066;-74
2022/04/08 07:19:53;;;;;;;5.57;2.03;;;;;;;;;;8236619;28;20113;-76
2022/04/08 07:24:07;;;;;;;7.63;2.13;;;;;;;;;;8234873;28;20062;-75
2022/04/08 07:28:19;;;;;;;5.97;1.90;;;;;;;;;;8236252;28;20066;-74
2022/04/08 07:32:23;;;;;;;8.18;2.38;;;;;;;;;;8236103;28;20050;-74
2022/04/08 07:36:36;;;;;;;3.80;1.90;;;;;;;;;;8235514;28;20497;-75
2022/04/08 07:40:46;;;;;;;7.07;1.60;;;;;;;;;;8235758;28;20046;-74
2022/04/08 07:44:56;;;;;;;6.97;2.13;;;;;;;;;;8235867;28;20054;-76
2022/04/08 07:49:06;;;;;;;5.07;1.70;;;;;;;;;;8235218;28;20383;-76
2022/04/08 07:53:15;;;;;;;6.57;1.60;;;;;;;;;;8234449;28;20050;-73
2022/04/08 07:57:26;;;;;;;4.20;1.70;;;;;;;;;;8235012;28;20069;-76
2022/04/08 08:01:46;;;;;;;4.22;1.70;;;;;;;;;;8232508;28;20379;-77
2022/04/08 08:05:53;;;;;;;4.00;1.80;;;;;;;;;;8233349;28;20512;-77
2022/04/08 08:10:01;;;;;;;4.75;1.75;;;;;;;;;;8233440;28;20051;-76
2022/04/08 08:14:15;;;;;;;6.88;2.00;;;;;;;;;;8233317;28;20101;-76
2022/04/08 08:18:22;;;;;;;3.13;1.70;;;;;;;;;;8234149;28;20039;-76
2022/04/08 08:22:31;;;;;;;4.55;1.75;;;;;;;;;;8230440;28;20109;-76
2022/04/08 08:26:40;;;;;;;3.08;1.88;;;;;;;;;;8234565;28;20073;-77
2022/04/08 08:30:51;;;;;;;4.47;1.77;;;;;;;;;;8234221;28;20043;-76
2022/04/08 08:35:02;;;;;;;5.32;1.90;;;;;;;;;;8230385;28;20093;-77
2022/04/08 08:39:14;;;;;;;3.67;1.63;;;;;;;;;;8233452;28;20059;-77
2022/04/08 08:43:30;;;;;;;3.05;1.83;;;;;;;;;;8234253;28;20478;-76
2022/04/08 08:47:41;;;;;;;2.80;1.75;;;;;;;;;;8233512;28;20080;-76
2022/04/08 08:52:06;;;;;;;4.68;2.22;;;;;;;;;;8233394;28;20047;-76
2022/04/08 08:56:15;;;;;;;3.80;1.50;;;;;;;;;;8233374;28;20054;-77
2022/04/08 09:00:23;;;;;;;4.97;2.00;;;;;;;;;;8232712;28;20134;-76
2022/04/08 09:04:27;;;;;;;3.78;1.90;;;;;;;;;;8233575;28;20058;-77
2022/04/08 09:08:55;;;;;;;3.28;1.60;;;;;;;;;;8233481;28;20506;-76
2022/04/08 09:13:07;;;;;;;3.05;1.70;;;;;;;;;;8233283;28;20054;-76
2022/04/08 09:17:17;;;;;;;4.20;1.60;;;;;;;;;;8229286;28;20479;-76
2022/04/08 09:21:40;;;;;;;3.60;1.50;;;;;;;;;;8224995;28;20491;-75
2022/04/08 09:26:03;;;;;;;3.65;1.60;;;;;;;;;;8227758;28;20042;-76
2022/04/08 09:30:15;;;;;;;3.80;1.95;;;;;;;;;;8207838;28;20439;-76
2022/04/08 09:34:29;;;;;;;6.35;2.40;;;;;;;;;;8204016;28;20051;-75
2022/04/08 09:38:41;;;;;;;4.35;1.85;;;;;;;;;;8235627;28;20138;-75
2022/04/08 09:42:59;;;;;;;2.47;1.38;;;;;;;;;;8229705;28;20062;-75
2022/04/08 09:47:14;;;;;;;2.92;1.70;;;;;;;;;;8238962;28;20450;-75
2022/04/08 09:51:24;;;;;;;5.70;2.10;;;;;;;;;;8234150;28;20133;-75
2022/04/08 09:55:40;;;;;;;2.28;1.90;;;;;;;;;;8236166;28;20051;-75
2022/04/08 09:59:49;;;;;;;4.97;2.13;;;;;;;;;;8235785;28;20069;-76
2022/04/08 10:03:56;;;;;;;6.68;1.92;;;;;;;;;;8237427;28;20055;-75
2022/04/08 10:08:09;;;;;;;5.00;1.90;;;;;;;;;;8235573;28;20047;-75
2022/04/08 10:12:30;;;;;;;8.13;3.60;;;;;;;;;;8229027;28;20097;-75
2022/04/08 10:16:35;;;;;;;4.15;1.83;;;;;;;;;;8233871;28;20046;-76
2022/04/08 10:20:45;;;;;;;5.25;1.83;;;;;;;;;;8234326;28;20051;-76
2022/04/08 10:24:57;;;;;;;7.13;2.80;;;;;;;;;;8236262;28;20070;-76
2022/04/08 10:29:17;;;;;;;5.77;1.70;;;;;;;;;;8237829;28;20101;-75
2022/04/08 10:33:31;;;;;;;3.88;1.67;;;;;;;;;;8237195;28;20081;-77
2022/04/08 10:37:38;;;;;;;4.97;1.48;;;;;;;;;;8233857;28;20118;-76
2022/04/08 10:41:53;;;;;;;3.15;1.80;;;;;;;;;;8235890;28;20050;-77
2022/04/08 10:46:01;;;;;;;4.28;2.05;;;;;;;;;;8232147;28;20046;-75
2022/04/08 10:50:14;;;;;;;4.22;2.22;;;;;;;;;;8233310;28;20042;-76
2022/04/08 10:54:20;;;;;;;2.55;1.50;;;;;;;;;;8236185;28;20426;-75
2022/04/08 10:58:33;;;;;;;4.00;1.75;;;;;;;;;;8231873;28;20053;-76
2022/04/08 11:02:39;;;;;;;5.80;2.28;;;;;;;;;;8233784;28;20604;-75
2022/04/08 11:06:43;;;;;;;5.00;2.65;;;;;;;;;;8207935;28;20475;-75
2022/04/08 11:10:46;;;;;;;5.70;2.97;;;;;;;;;;8234242;28;20478;-75
2022/04/08 11:14:55;;;;;;;6.35;2.20;;;;;;;;;;8236812;28;20047;-75
2022/04/08 11:19:00;;;;;;;4.60;1.70;;;;;;;;;;8236786;28;20098;-75
2022/04/08 11:23:03;;;;;;;2.20;1.73;;;;;;;;;;8235806;28;20058;-75
2022/04/08 11:27:06;;;;;;;7.93;4.22;;;;;;;;;;8235637;28;20046;-76
2022/04/08 11:31:09;;;;;;;4.97;2.42;;;;;;;;;;8235633;28;20050;-75
2022/04/08 11:35:15;;;;;;;3.53;1.67;;;;;;;;;;8236152;28;20043;-75
2022/04/08 11:39:26;;;;;;;9.90;2.40;;;;;;;;;;8233943;28;20133;-76
2022/04/08 11:43:35;;;;;;;4.88;2.28;;;;;;;;;;8235924;28;20138;-76
2022/04/08 11:47:52;;;;;;;2.40;1.67;;;;;;;;;;8230055;28;20082;-77
2022/04/08 11:52:07;;;;;;;6.68;3.03;;;;;;;;;;8205910;28;20079;-76
2022/04/08 11:56:25;;;;;;;3.33;1.65;;;;;;;;;;8207125;28;20039;-76
2022/04/08 12:00:34;;;;;;;9.30;2.67;;;;;;;;;;8200880;28;20078;-77
2022/04/08 12:04:42;;;;;;;3.42;1.80;;;;;;;;;;8201574;28;20081;-75
2022/04/08 12:08:56;;;;;;;4.68;1.88;;;;;;;;;;8202164;28;20047;-76
2022/04/08 12:13:01;;;;;;;4.85;1.70;;;;;;;;;;8202383;28;20060;-75
2022/04/08 12:17:05;;;;;;;2.75;1.65;;;;;;;;;;8203262;28;20047;-75
2022/04/08 12:21:08;;;;;;;3.03;1.70;;;;;;;;;;8209198;28;20046;-75
2022/04/08 12:25:14;;;;;;;5.85;1.88;;;;;;;;;;8226928;28;20130;-75
2022/04/08 12:29:18;;;;;;;3.08;1.80;;;;;;;;;;8233729;28;20073;-76
2022/04/08 12:33:21;;;;;;;4.45;2.10;;;;;;;;;;8232071;28;20046;-75
2022/04/08 12:37:25;;;;;;;3.88;2.17;;;;;;;;;;8227168;28;20085;-76
2022/04/08 12:41:31;;;;;;;2.67;1.70;;;;;;;;;;8225227;28;20102;-76
2022/04/08 12:45:35;;;;;;;3.40;2.20;;;;;;;;;;8229637;28;20418;-76
2022/04/08 12:49:38;;;;;;;3.67;1.90;;;;;;;;;;8213534;28;20058;-75
2022/04/08 12:53:41;;;;;;;2.47;1.55;;;;;;;;;;8208357;28;20042;-76
2022/04/08 12:57:47;;;;;;;2.67;1.55;;;;;;;;;;8232393;28;20047;-76
2022/04/08 13:01:50;;;;;;;3.20;1.50;;;;;;;;;;8228530;28;20047;-76
2022/04/08 13:05:53;;;;;;;3.33;1.83;;;;;;;;;;8214800;28;20051;-77
2022/04/08 13:09:57;;;;;;;1.40;1.30;;;;;;;;;;8217827;28;20121;-75
2022/04/08 13:14:02;;;;;;;2.67;1.65;;;;;;;;;;8232558;28;20529;-76
2022/04/08 13:18:06;;;;;;;2.63;1.67;;;;;;;;;;8233241;28;20479;-75
2022/04/08 13:22:12;;;;;;;3.92;1.80;;;;;;;;;;8230905;28;21361;-75
2022/04/08 13:26:15;;;;;;;3.03;1.50;;;;;;;;;;8232430;28;20043;-76
2022/04/08 13:30:19;;;;;;;5.32;2.13;;;;;;;;;;8231486;28;20047;-75
2022/04/08 13:34:22;;;;;;;3.60;2.03;;;;;;;;;;8231475;28;20055;-75
2022/04/08 13:38:25;;;;;;;2.85;1.80;;;;;;;;;;8229626;28;20522;-75
2022/04/08 13:42:29;;;;;;;2.83;1.67;;;;;;;;;;8225899;28;20051;-75
2022/04/08 13:46:33;;;;;;;2.05;1.85;;;;;;;;;;8231121;28;20070;-75
2022/04/08 13:50:37;;;;;;;3.28;2.13;;;;;;;;;;8218105;28;20588;-75
2022/04/08 13:54:47;;;;;;;3.70;2.03;;;;;;;;;;8209054;28;20049;-76
2022/04/08 13:58:53;;;;;;;2.92;1.98;;;;;;;;;;8231599;28;20047;-76
2022/04/08 14:03:04;;;;;;;10.30;4.32;;;;;;;;;;8230336;28;20051;-75
2022/04/08 14:07:24;;;;;;;4.20;2.35;;;;;;;;;;8232139;28;20047;-76
2022/04/08 14:16:20;;;;;;;4.82;2.22;;;;;;;;;;8231020;28;20546;-75
2022/04/08 14:20:27;;;;;;;16.73;5.57;;;;;;;;;;8230059;28;20082;-76
2022/04/08 14:24:30;;;;;;;4.90;3.05;;;;;;;;;;8225969;28;20088;-75
2022/04/08 14:28:34;;;;;;;4.95;2.30;;;;;;;;;;8231093;28;20050;-75
2022/04/08 14:32:38;;;;;;;4.20;2.53;;;;;;;;;;8237133;28;20066;-76
2022/04/08 14:36:43;;;;;;;3.85;2.05;;;;;;;;;;8223014;28;20043;-75
2022/04/08 14:40:46;;;;;;;9.35;3.90;;;;;;;;;;8235261;28;20062;-75
2022/04/08 14:44:51;;;;;;;6.63;2.97;;;;;;;;;;8236331;28;20039;-76
2022/04/08 14:48:54;;;;;;;6.78;3.40;;;;;;;;;;8237907;28;20483;-75
2022/04/08 14:52:59;;;;;;;5.80;3.40;;;;;;;;;;8236898;28;20042;-75
2022/04/08 14:57:02;;;;;;;12.07;5.63;;;;;;;;;;8263710;28;20471;-76
2022/04/08 15:01:06;;;;;;;8.82;5.15;;;;;;;;;;8269436;28;20559;-76
2022/04/08 15:05:10;;;;;;;4.95;2.03;;;;;;;;;;8257414;28;20110;-76
2022/04/08 15:09:15;;;;;;;4.88;2.17;;;;;;;;;;8237052;28;20450;-76
2022/04/08 15:13:18;;;;;;;6.25;2.80;;;;;;;;;;8237272;28;20105;-76
2022/04/08 15:17:22;;;;;;;3.65;2.22;;;;;;;;;;8237159;28;20058;-76
2022/04/08 15:21:25;;;;;;;4.65;2.35;;;;;;;;;;8236289;28;20082;-75
2022/04/08 15:25:30;;;;;;;4.88;2.65;;;;;;;;;;8237074;28;20075;-75
2022/04/08 15:29:34;;;;;;;6.10;3.40;;;;;;;;;;8232439;28;20142;-76
2022/04/08 15:33:37;;;;;;;9.10;3.28;;;;;;;;;;8209605;28;20055;-75
2022/04/08 15:37:42;;;;;;;7.03;2.90;;;;;;;;;;8219392;28;20475;-75
2022/04/08 15:41:47;;;;;;;5.35;2.50;;;;;;;;;;8235971;28;20062;-75
2022/04/08 15:45:49;;;;;;;5.70;2.60;;;;;;;;;;8232408;28;20046;-75
2022/04/08 15:49:58;;;;;;;11.07;5.22;;;;;;;;;;8232523;28;20075;-75
2022/04/08 15:54:06;;;;;;;7.18;3.35;;;;;;;;;;8201436;28;20047;-76
2022/04/08 15:58:26;;;;;;;5.65;2.92;;;;;;;;;;8202126;28;20396;-75
2022/04/08 16:02:34;;;;;;;9.75;3.88;;;;;;;;;;8201666;28;20074;-75
2022/04/08 16:06:45;;;;;;;19.98;10.75;;;;;;;;;;8200745;29;20055;-75
2022/04/08 16:10:52;;;;;;;15.52;7.20;;;;;;;;;;8203093;28;20039;-75
2022/04/08 16:15:00;;;;;;;11.35;5.03;;;;;;;;;;8203341;28;20067;-76
2022/04/08 16:19:06;;;;;;;8.60;3.40;;;;;;;;;;8203018;28;20411;-75
2022/04/08 16:23:13;;;;;;;5.03;3.10;;;;;;;;;;8201592;29;20066;-75
2022/04/08 16:27:17;;;;;;;18.15;8.07;;;;;;;;;;8202578;28;20043;-75
2022/04/08 16:31:44;;;;;;;224.95;60.97;;;;;;;;;;8202384;28;20054;-75
2022/04/08 16:36:03;;;;;;;141.23;41.05;;;;;;;;;;8202671;28;20055;-75
2022/04/08 16:40:13;;;;;;;54.28;25.63;;;;;;;;;;8201975;28;20101;-75
2022/04/08 16:44:17;;;;;;;53.03;26.05;;;;;;;;;;8201520;28;20073;-75
2022/04/08 16:48:33;;;;;;;57.33;26.48;;;;;;;;;;8202089;28;20054;-76
2022/04/08 16:52:40;;;;;;;27.05;12.68;;;;;;;;;;8201451;28;20051;-75
2022/04/08 16:56:45;;;;;;;23.73;11.60;;;;;;;;;;8201629;28;20058;-75
2022/04/08 17:00:52;;;;;;;13.90;7.18;;;;;;;;;;8201700;28;20075;-75
2022/04/08 17:05:01;;;;;;;14.55;6.10;;;;;;;;;;8201449;28;20431;-75
2022/04/08 17:09:04;;;;;;;15.65;8.55;;;;;;;;;;8201688;28;20050;-75
2022/04/08 17:13:19;;;;;;;12.23;6.35;;;;;;;;;;8201291;28;20054;-76
2022/04/08 17:17:34;;;;;;;18.50;6.68;;;;;;;;;;8200991;28;20138;-75
2022/04/08 17:21:58;;;;;;;13.98;6.80;;;;;;;;;;8200696;28;20082;-75
2022/04/08 17:26:09;;;;;;;24.38;11.55;;;;;;;;;;8200164;28;20051;-75
2022/04/08 17:30:38;;;;;;;17.48;7.60;;;;;;;;;;8201280;28;20051;-75
2022/04/08 17:34:56;;;;;;;11.55;6.05;;;;;;;;;;8201465;28;20480;-75
2022/04/08 17:39:15;;;;;;;15.48;8.18;;;;;;;;;;8200617;28;20047;-75
2022/04/08 17:43:44;;;;;;;11.38;6.20;;;;;;;;;;8200954;28;20079;-74
2022/04/08 17:48:09;;;;;;;57.75;27.33;;;;;;;;;;8200603;28;20134;-75
2022/04/08 17:52:23;;;;;;;79.03;32.42;;;;;;;;;;8200838;28;20051;-74
2022/04/08 17:56:29;;;;;;;55.35;21.85;;;;;;;;;;8225990;28;20499;-74
2022/04/08 18:00:32;;;;;;;58.63;22.20;;;;;;;;;;8238660;28;20053;-76
2022/04/08 18:04:38;;;;;;;21.92;8.80;;;;;;;;;;8238756;28;20054;-73
2022/04/08 18:08:41;;;;;;;37.90;15.50;;;;;;;;;;8238643;28;20055;-73
2022/04/08 18:12:46;;;;;;;45.30;16.20;;;;;;;;;;8238519;28;20050;-74
2022/04/08 18:16:49;;;;;;;27.38;10.63;;;;;;;;;;8238645;28;20047;-73
2022/04/08 18:21:12;;;;;;;16.23;7.15;;;;;;;;;;8238208;28;20047;-73
2022/04/08 18:25:29;;;;;;;12.20;6.00;;;;;;;;;;8237981;28;20051;-73
2022/04/08 18:29:44;;;;;;;96.20;36.28;;;;;;;;;;8237764;28;20046;-74
2022/04/08 18:34:03;;;;;;;77.32;27.65;;;;;;;;;;8237909;28;20047;-74
2022/04/08 18:38:17;;;;;;;40.83;16.27;;;;;;;;;;8237674;28;20097;-74
2022/04/08 18:42:33;;;;;;;79.38;33.25;;;;;;;;;;8237298;28;20047;-73
2022/04/08 18:46:55;;;;;;;69.30;30.35;;;;;;;;;;8237407;28;20047;-73
2022/04/08 18:51:09;;;;;;;52.72;24.05;;;;;;;;;;8237385;28;20074;-74
2022/04/08 18:55:16;;;;;;;146.88;50.15;;;;;;;;;;8241794;28;20105;-73
2022/04/08 18:59:18;;;;;;;56.78;22.25;;;;;;;;;;8236310;28;20039;-73
2022/04/08 19:03:24;;;;;;;48.95;19.92;;;;;;;;;;8205479;28;20828;-74
2022/04/08 19:07:30;;;;;;;59.85;23.38;;;;;;;;;;8234224;28;20043;-75
2022/04/08 19:11:42;;;;;;;90.10;31.50;;;;;;;;;;8236865;28;20042;-75
2022/04/08 19:16:15;;;;;;;28.45;13.38;;;;;;;;;;8237003;28;20089;-74
2022/04/08 19:20:28;;;;;;;45.58;21.50;;;;;;;;;;8236661;28;20141;-75
2022/04/08 19:24:33;;;;;;;24.98;10.40;;;;;;;;;;8236121;28;20062;-75
2022/04/08 19:28:38;;;;;;;19.13;9.98;;;;;;;;;;8236648;28;20138;-75
2022/04/08 19:32:45;;;;;;;37.85;24.42;;;;;;;;;;8236381;28;20475;-75
2022/04/08 19:36:59;;;;;;;53.78;35.47;;;;;;;;;;8236136;28;20105;-74
2022/04/08 19:41:11;;;;;;;19.60;11.57;;;;;;;;;;8236575;28;20082;-74
2022/04/08 19:45:25;;;;;;;18.40;11.07;;;;;;;;;;8235823;28;20430;-74
2022/04/08 19:49:33;;;;;;;37.45;18.02;;;;;;;;;;8233498;28;20610;-76
2022/04/08 19:53:41;;;;;;;149.38;52.47;;;;;;;;;;8235473;28;20526;-76
2022/04/08 19:58:43;;;;;;;36.92;21.80;;;;;;;;;;8236145;28;20050;-76
2022/04/08 20:07:58;;;;;;;15.63;8.18;;;;;;;;;;8231619;28;20058;-76
2022/04/08 20:12:16;;;;;;;19.17;11.73;;;;;;;;;;8232705;28;20145;-76
2022/04/08 20:16:48;;;;;;;31.13;18.75;;;;;;;;;;8230551;28;20502;-75
2022/04/08 20:21:03;;;;;;;30.35;18.55;;;;;;;;;;8232576;28;20055;-75
2022/04/08 20:25:16;;;;;;;14.52;8.65;;;;;;;;;;8232486;28;20069;-76
2022/04/08 20:29:23;;;;;;;13.55;6.68;;;;;;;;;;8234393;28;20214;-75
2022/04/08 20:33:27;;;;;;;11.38;6.05;;;;;;;;;;8235060;28;20505;-75
2022/04/08 20:37:30;;;;;;;13.52;5.88;;;;;;;;;;8234411;28;20404;-76
2022/04/08 20:41:36;;;;;;;11.38;5.50;;;;;;;;;;8234254;28;20089;-75
2022/04/08 20:45:44;;;;;;;10.18;4.90;;;;;;;;;;8234117;28;20055;-76
2022/04/08 20:49:48;;;;;;;12.23;5.35;;;;;;;;;;8234234;28;20050;-75
2022/04/08 20:53:52;;;;;;;18.70;10.02;;;;;;;;;;8234424;28;20569;-75
2022/04/08 20:57:57;;;;;;;17.33;10.75;;;;;;;;;;8232589;28;20588;-76
2022/04/08 21:02:02;;;;;;;12.43;7.00;;;;;;;;;;8233758;28;20054;-76
2022/04/08 21:06:07;;;;;;;20.67;12.63;;;;;;;;;;8233681;28;20046;-76
2022/04/08 21:10:10;;;;;;;23.50;14.85;;;;;;;;;;8234087;28;20050;-75
2022/04/08 21:14:13;;;;;;;28.60;13.48;;;;;;;;;;8234017;28;20486;-76
2022/04/08 21:18:18;;;;;;;13.32;6.82;;;;;;;;;;8233891;28;20113;-75
2022/04/08 21:22:22;;;;;;;10.75;6.22;;;;;;;;;;8233257;28;20062;-76
2022/04/08 21:26:25;;;;;;;13.18;6.53;;;;;;;;;;8233248;28;20109;-76
2022/04/08 21:30:29;;;;;;;20.27;15.02;;;;;;;;;;8232962;28;20051;-76
2022/04/08 21:34:34;;;;;;;12.20;8.70;;;;;;;;;;8233241;28;20051;-76
2022/04/08 21:38:40;;;;;;;36.22;17.00;;;;;;;;;;8233175;28;20051;-76
2022/04/08 21:42:42;;;;;;;24.33;16.17;;;;;;;;;;8233087;28;20098;-76
2022/04/08 21:46:45;;;;;;;11.57;6.85;;;;;;;;;;8232923;28;20057;-76
2022/04/08 21:50:50;;;;;;;12.40;6.47;;;;;;;;;;8233464;28;20046;-76
2022/04/08 21:54:53;;;;;;;26.15;23.52;;;;;;;;;;8232922;28;20054;-75
2022/04/08 21:58:55;;;;;;;15.90;14.23;;;;;;;;;;8233401;28;20046;-76
2022/04/08 22:02:58;;;;;;;16.20;11.95;;;;;;;;;;8232814;28;20058;-76
2022/04/08 22:07:03;;;;;;;12.82;9.75;;;;;;;;;;8233237;28;20058;-75
2022/04/08 22:11:06;;;;;;;15.05;8.40;;;;;;;;;;8233281;28;20047;-76
2022/04/08 22:15:09;;;;;;;10.60;6.05;;;;;;;;;;8232678;28;20105;-75
2022/04/08 22:19:11;;;;;;;11.05;6.43;;;;;;;;;;8232557;28;20047;-76
2022/04/08 22:23:16;;;;;;;10.63;6.50;;;;;;;;;;8232168;28;20051;-76
2022/04/08 22:27:19;;;;;;;12.25;8.30;;;;;;;;;;8232406;28;20133;-75
2022/04/08 22:31:21;;;;;;;10.52;7.25;;;;;;;;;;8232373;28;20057;-75
2022/04/08 22:35:25;;;;;;;12.60;8.90;;;;;;;;;;8232307;28;20101;-76
2022/04/08 22:39:29;;;;;;;12.23;7.65;;;;;;;;;;8232733;28;20477;-76
2022/04/08 22:43:32;;;;;;;12.68;8.40;;;;;;;;;;8236941;28;20070;-76
2022/04/08 22:47:35;;;;;;;15.05;8.27;;;;;;;;;;8238256;28;20079;-76
2022/04/08 22:51:38;;;;;;;26.25;12.55;;;;;;;;;;8237686;28;20069;-76
2022/04/08 22:55:43;;;;;;;14.18;7.63;;;;;;;;;;8265474;28;20126;-76
2022/04/08 22:59:47;;;;;;;12.50;6.65;;;;;;;;;;8269761;28;20125;-76
2022/04/08 23:03:50;;;;;;;10.52;6.45;;;;;;;;;;8256525;28;20117;-76
2022/04/08 23:07:52;;;;;;;15.95;6.95;;;;;;;;;;8237144;28;20042;-75
2022/04/08 23:11:56;;;;;;;12.73;7.90;;;;;;;;;;8237033;28;20105;-75
2022/04/08 23:15:59;;;;;;;8.32;6.18;;;;;;;;;;8236981;28;20058;-75
2022/04/08 23:20:01;;;;;;;12.80;7.03;;;;;;;;;;8236986;28;20097;-76
2022/04/08 23:24:05;;;;;;;12.25;7.32;;;;;;;;;;8236777;28;20050;-76
2022/04/08 23:28:09;;;;;;;12.27;7.47;;;;;;;;;;8236728;28;20126;-75
2022/04/08 23:32:12;;;;;;;12.27;9.18;;;;;;;;;;8236945;28;20050;-76
2022/04/08 23:36:14;;;;;;;9.82;7.03;;;;;;;;;;8236379;28;20046;-75
2022/04/08 23:40:17;;;;;;;10.52;6.72;;;;;;;;;;8236264;28;20050;-76
2022/04/08 23:44:21;;;;;;;13.65;7.97;;;;;;;;;;8235986;28;20055;-75
2022/04/08 23:48:25;;;;;;;11.38;7.38;;;;;;;;;;8235875;28;20058;-76
2022/04/08 23:52:27;;;;;;;12.35;7.10;;;;;;;;;;8236150;28;20061;-75
2022/04/08 23:56:30;;;;;;;10.32;6.60;;;;;;;;;;8235647;28;20054;-76
